Time;durP1;ratioP1;P1;durP2;ratioP2;P2;SDS_P1;SDS_P2;PMS_P1;PMS_P2;Temp;Humidity;BMP_temperature;BMP_pressure;BME280_temperature;BME280_humidity;BME280_pressure;Samples;Min_cycle;Max_cycle;Signal;HPM_P1;HPM_P2
2023/01/16 00:00:21;;;;;;;6.10;2.03;;;;;;;5.17;94.99;99095.22;6164919;23;20057;-83
2023/01/16 00:02:48;;;;;;;4.97;1.65;;;;;;;5.12;94.52;99083.72;6165541;23;20025;-84
2023/01/16 00:05:18;;;;;;;5.30;1.88;;;;;;;5.12;95.09;99086.31;6166051;23;20067;-83
2023/01/16 00:07:45;;;;;;;4.78;1.90;;;;;;;5.07;95.10;99075.59;6164371;23;20104;-83
2023/01/16 00:10:12;;;;;;;4.47;2.10;;;;;;;5.00;95.07;99068.44;6164829;23;20021;-82
2023/01/16 00:12:38;;;;;;;4.85;2.17;;;;;;;5.00;94.66;99068.44;6164120;23;20049;-83
2023/01/16 00:15:05;;;;;;;8.98;2.40;;;;;;;4.93;94.94;99062.25;6163292;23;20051;-82
2023/01/16 00:17:32;;;;;;;6.93;2.00;;;;;;;4.94;94.98;99063.88;6162952;23;20032;-82
2023/01/16 00:19:59;;;;;;;3.70;2.22;;;;;;;4.88;95.56;99053.34;6167811;23;20036;-84
2023/01/16 00:22:27;;;;;;;5.25;2.20;;;;;;;4.82;95.03;99054.78;6166839;23;20025;-83
2023/01/16 00:24:53;;;;;;;6.22;2.30;;;;;;;4.64;95.64;99035.94;6168131;23;20022;-83
2023/01/16 00:27:20;;;;;;;3.65;1.83;;;;;;;4.54;95.62;99035.25;6167758;23;20080;-82
2023/01/16 00:29:47;;;;;;;3.53;2.03;;;;;;;4.46;95.33;99041.22;6166704;23;20123;-82
2023/01/16 00:32:15;;;;;;;5.30;1.70;;;;;;;4.40;95.93;99038.44;6166203;23;20087;-83
2023/01/16 00:34:41;;;;;;;3.22;1.88;;;;;;;4.29;96.59;99034.34;6166678;23;20018;-82
2023/01/16 00:37:10;;;;;;;7.75;2.25;;;;;;;4.21;96.33;99024.78;6163219;23;20064;-83
2023/01/16 00:39:39;;;;;;;7.07;2.08;;;;;;;4.27;96.29;99021.53;6163204;23;20091;-81
2023/01/16 00:42:06;;;;;;;3.38;2.05;;;;;;;4.46;95.26;99022.28;6163624;23;20021;-81
2023/01/16 00:44:33;;;;;;;3.80;2.00;;;;;;;4.50;94.94;99013.22;6163893;23;20044;-81
2023/01/16 00:46:59;;;;;;;2.80;1.40;;;;;;;4.55;95.19;99016.16;6163426;23;20033;-81
2023/01/16 00:49:26;;;;;;;4.07;2.22;;;;;;;4.63;95.01;99016.19;6161534;23;20072;-82
2023/01/16 00:51:54;;;;;;;5.63;2.47;;;;;;;4.68;94.37;99011.34;6161838;23;20025;-80
2023/01/16 00:54:20;;;;;;;4.18;2.00;;;;;;;4.70;94.34;98996.47;6162794;23;20041;-81
2023/01/16 00:56:48;;;;;;;9.27;2.55;;;;;;;4.72;94.58;99012.66;6167506;23;20025;-82
2023/01/16 00:59:15;;;;;;;4.22;2.13;;;;;;;4.82;94.26;99002.13;6165313;23;20021;-82
2023/01/16 01:01:42;;;;;;;6.60;1.98;;;;;;;4.82;93.63;98997.75;6166313;23;20053;-82
2023/01/16 01:04:09;;;;;;;3.40;1.67;;;;;;;4.77;93.72;98994.84;6165278;23;20032;-81
2023/01/16 01:06:35;;;;;;;3.85;1.73;;;;;;;4.70;94.20;98980.91;6162792;23;20056;-82
2023/01/16 01:09:02;;;;;;;6.05;2.00;;;;;;;4.68;94.07;98982.03;6163820;23;20040;-82
2023/01/16 01:11:31;;;;;;;4.70;2.10;;;;;;;4.69;94.65;98984.47;6173167;23;20052;-82
2023/01/16 01:14:02;;;;;;;9.20;1.90;;;;;;;4.68;94.40;98966.50;6181584;23;20044;-81
2023/01/16 01:16:31;;;;;;;6.18;1.67;;;;;;;4.76;94.23;98971.66;6182177;23;20032;-81
2023/01/16 01:18:58;;;;;;;5.95;1.85;;;;;;;4.76;94.42;98975.06;6181593;23;20104;-82
2023/01/16 01:21:24;;;;;;;5.20;2.03;;;;;;;4.78;95.06;98965.38;6181831;23;20029;-82
2023/01/16 01:23:51;;;;;;;5.40;2.17;;;;;;;4.80;94.91;98960.03;6182057;23;20010;-81
2023/01/16 01:26:18;;;;;;;2.58;1.70;;;;;;;4.82;94.71;98945.94;6181651;23;20022;-82
2023/01/16 01:28:47;;;;;;;1.38;1.15;;;;;;;4.77;95.17;98945.59;6169197;23;20426;-82
2023/01/16 01:31:15;;;;;;;3.97;1.63;;;;;;;4.78;95.55;98942.03;6165800;23;20021;-82
2023/01/16 01:33:42;;;;;;;5.07;1.88;;;;;;;4.73;95.77;98935.72;6166206;23;20037;-82
2023/01/16 01:36:10;;;;;;;3.92;1.80;;;;;;;4.63;96.06;98941.88;6165907;23;20070;-83
2023/01/16 01:38:37;;;;;;;5.80;2.20;;;;;;;4.67;96.60;98932.00;6164703;23;20032;-82
2023/01/16 01:41:04;;;;;;;4.20;1.77;;;;;;;4.65;97.04;98937.34;6165279;23;20060;-83
2023/01/16 01:43:41;;;;;;;3.97;1.90;;;;;;;4.67;96.86;98921.66;6165394;23;20040;-83
2023/01/16 01:46:14;;;;;;;2.58;1.55;;;;;;;4.67;97.17;98926.81;6164304;23;20403;-82
2023/01/16 01:48:42;;;;;;;;;;;;;;;4.77;97.07;98917.09;6164583;23;20056;-83
2023/01/16 01:51:14;;;;;;;4.07;2.15;;;;;;;4.80;96.57;98909.00;6163832;23;19916;-83
2023/01/16 01:53:44;;;;;;;6.65;1.73;;;;;;;4.88;96.28;98897.84;6164112;23;20052;-83
2023/01/16 01:56:16;;;;;;;4.30;1.75;;;;;;;4.80;96.01;98896.03;6164396;23;20033;-83
2023/01/16 01:58:47;;;;;;;4.13;1.77;;;;;;;4.79;96.37;98881.47;6163511;23;20049;-83
2023/01/16 02:01:13;;;;;;;5.95;2.30;;;;;;;4.79;95.89;98865.91;6163779;23;20410;-83
2023/01/16 02:03:47;;;;;;;2.65;1.65;;;;;;;4.73;95.83;98874.34;6163571;23;20025;-83
2023/01/16 02:06:17;;;;;;;3.38;1.75;;;;;;;4.68;95.96;98858.50;6162419;23;20059;-82
2023/01/16 02:08:44;;;;;;;2.42;1.25;;;;;;;4.61;96.43;98855.72;6162029;23;20017;-83
2023/01/16 02:11:26;;;;;;;2.92;1.52;;;;;;;4.50;96.51;98857.81;6163448;23;20025;-82
2023/01/16 02:13:55;;;;;;;4.93;1.40;;;;;;;4.34;96.67;98836.09;6163299;23;20018;-83
2023/01/16 02:19:16;;;;;;;2.30;1.35;;;;;;;4.28;97.26;98844.50;6162729;23;20052;-82
2023/01/16 02:22:07;;;;;;;5.47;1.70;;;;;;;4.13;97.67;98838.34;6163177;23;20026;-82
2023/01/16 02:24:52;;;;;;;3.55;1.83;;;;;;;4.03;97.78;98819.56;6163365;23;20354;-82
2023/01/16 02:27:36;;;;;;;3.33;1.65;;;;;;;4.00;98.63;98825.06;6164150;23;20048;-82
2023/01/16 02:30:25;;;;;;;3.58;2.60;;;;;;;3.93;98.96;98830.03;6163779;23;20032;-83
2023/01/16 02:33:04;;;;;;;2.65;1.20;;;;;;;3.91;99.04;98821.63;6115208;23;20064;-82
2023/01/16 02:35:51;;;;;;;3.15;1.45;;;;;;;3.87;98.92;98809.16;6164048;23;20027;-82
2023/01/16 02:38:26;;;;;;;1.30;1.00;;;;;;;3.81;99.58;98802.03;6163978;23;20029;-82
2023/01/16 02:41:01;;;;;;;3.22;1.40;;;;;;;3.76;99.60;98806.88;6165152;23;20025;-82
2023/01/16 02:43:35;;;;;;;2.35;0.95;;;;;;;3.73;99.48;98797.66;6166435;23;20040;-81
2023/01/16 02:46:16;;;;;;;1.10;0.60;;;;;;;3.56;99.51;98793.38;6167117;23;20025;-82
2023/01/16 02:48:50;;;;;;;2.95;1.35;;;;;;;3.51;100.00;98791.25;6169139;23;20025;-81
2023/01/16 02:51:24;;;;;;;1.85;1.20;;;;;;;3.44;100.00;98779.91;6168902;23;20032;-82
2023/01/16 02:53:58;;;;;;;3.78;1.30;;;;;;;3.56;100.00;98783.84;6169826;23;20032;-82
2023/01/16 02:56:32;;;;;;;3.10;1.33;;;;;;;3.60;100.00;98769.66;6169525;23;20032;-81
2023/01/16 02:58:59;;;;;;;2.95;1.58;;;;;;;3.60;100.00;98761.88;6168871;23;20060;-80
2023/01/16 03:01:25;;;;;;;1.80;0.88;;;;;;;3.61;100.00;98750.56;6169247;23;20049;-81
2023/01/16 03:04:06;;;;;;;1.02;0.75;;;;;;;3.63;100.00;98734.91;6170064;23;20022;-81
2023/01/16 03:06:44;;;;;;;1.70;1.15;;;;;;;3.63;100.00;98727.94;6169384;23;20025;-82
2023/01/16 03:09:38;;;;;;;3.05;1.00;;;;;;;3.64;100.00;98713.25;6167727;23;20036;-82
2023/01/16 03:12:22;;;;;;;1.33;0.85;;;;;;;3.53;100.00;98703.19;6157787;23;20300;-82
2023/01/16 03:14:56;;;;;;;1.13;0.80;;;;;;;3.42;100.00;98695.72;6166856;23;20053;-83
2023/01/16 03:17:40;;;;;;;2.72;1.35;;;;;;;3.34;100.00;98683.56;6166720;23;20084;-82
2023/01/16 03:20:17;;;;;;;1.38;1.25;;;;;;;3.25;100.00;98679.38;6166848;23;20037;-83
2023/01/16 03:22:53;;;;;;;1.75;0.80;;;;;;;3.23;100.00;98682.13;6167020;23;20022;-82
2023/01/16 03:25:30;;;;;;;3.65;0.90;;;;;;;3.27;100.00;98683.41;6166385;23;20028;-82
2023/01/16 03:28:05;;;;;;;0.98;0.90;;;;;;;3.20;100.00;98669.50;6165910;23;20022;-81
2023/01/16 03:30:38;;;;;;;2.88;1.35;;;;;;;3.13;100.00;98655.59;6162477;23;20036;-83
2023/01/16 03:33:09;;;;;;;1.30;0.98;;;;;;;3.18;100.00;98648.16;6162914;23;20025;-82
2023/01/16 03:35:43;;;;;;;1.45;0.95;;;;;;;3.18;100.00;98649.94;6163230;23;20018;-83
2023/01/16 03:38:13;;;;;;;0.80;0.80;;;;;;;3.21;100.00;98644.47;6162586;23;20362;-83
2023/01/16 03:40:44;;;;;;;1.85;1.20;;;;;;;3.23;100.00;98645.13;6165680;23;20048;-82
2023/01/16 03:43:15;;;;;;;3.00;1.30;;;;;;;3.28;100.00;98642.88;6165836;23;20026;-81
2023/01/16 03:45:46;;;;;;;1.83;1.30;;;;;;;3.26;100.00;98639.63;6164172;23;20028;-82
2023/01/16 03:48:19;;;;;;;1.38;1.27;;;;;;;3.27;100.00;98636.09;6164735;23;20025;-83
2023/01/16 03:50:52;;;;;;;2.67;1.70;;;;;;;3.27;100.00;98623.16;6165312;23;20029;-83
2023/01/16 03:53:23;;;;;;;5.38;1.67;;;;;;;3.32;100.00;98623.47;6165224;23;20049;-82
2023/01/16 03:56:00;;;;;;;3.47;1.90;;;;;;;3.34;100.00;98619.75;6165990;23;20072;-83
2023/01/16 03:59:00;;;;;;;4.53;1.95;;;;;;;3.40;100.00;98600.22;6157722;23;20044;-77
2023/01/16 04:01:42;;;;;;;4.03;1.77;;;;;;;3.23;100.00;98559.81;6158060;23;20121;-77
2023/01/16 04:04:22;;;;;;;9.50;2.03;;;;;;;3.26;100.00;98560.31;6156897;23;20069;-77
2023/01/16 04:06:55;;;;;;;5.32;2.03;;;;;;;3.28;100.00;98550.63;6155858;23;20060;-75
2023/01/16 04:09:30;;;;;;;4.90;1.90;;;;;;;3.39;100.00;98553.84;6155731;23;20061;-77
2023/01/16 04:12:20;;;;;;;5.90;2.38;;;;;;;3.30;100.00;98540.13;6157574;23;20060;-79
2023/01/16 04:14:49;;;;;;;3.92;2.58;;;;;;;3.20;100.00;98506.69;6160508;23;20025;-78
2023/01/16 04:17:18;;;;;;;4.38;2.40;;;;;;;3.20;100.00;98492.94;6157858;23;20492;-78
2023/01/16 04:19:48;;;;;;;6.13;3.10;;;;;;;3.34;100.00;98515.53;6159918;23;20025;-77
2023/01/16 04:22:26;;;;;;;6.47;3.17;;;;;;;3.32;100.00;98484.69;6163114;23;20025;-78
2023/01/16 04:24:55;;;;;;;6.15;2.65;;;;;;;3.31;100.00;98469.34;6163136;23;20034;-78
2023/01/16 04:27:26;;;;;;;5.82;2.75;;;;;;;3.45;100.00;98473.06;6163726;23;20053;-77
2023/01/16 04:30:03;;;;;;;5.93;2.67;;;;;;;3.52;100.00;98474.81;6163384;23;20029;-78
2023/01/16 04:32:36;;;;;;;7.38;3.28;;;;;;;3.44;100.00;98450.75;6164874;23;20095;-78
2023/01/16 04:35:04;;;;;;;4.15;2.72;;;;;;;3.37;100.00;98427.31;6162557;23;20029;-78
2023/01/16 04:37:39;;;;;;;5.72;2.70;;;;;;;3.58;100.00;98456.06;6156966;23;20021;-77
2023/01/16 04:40:10;;;;;;;7.07;3.08;;;;;;;3.61;100.00;98448.00;6157282;23;20501;-78
2023/01/16 04:42:45;;;;;;;10.35;3.63;;;;;;;3.62;100.00;98449.59;6156646;23;20076;-79
2023/01/16 04:45:14;;;;;;;6.65;2.95;;;;;;;3.64;100.00;98434.72;6157549;23;20041;-78
2023/01/16 04:47:46;;;;;;;6.45;3.40;;;;;;;3.72;100.00;98423.56;6157608;23;20470;-78
2023/01/16 04:50:13;;;;;;;8.75;2.75;;;;;;;3.72;100.00;98402.88;6156896;23;20030;-78
2023/01/16 04:52:43;;;;;;;7.03;3.08;;;;;;;3.77;100.00;98400.59;6158078;23;20041;-78
2023/01/16 04:55:11;;;;;;;7.35;3.05;;;;;;;3.81;100.00;98383.72;6157270;23;20407;-78
2023/01/16 04:57:38;;;;;;;6.93;3.25;;;;;;;3.91;100.00;98386.13;6157220;23;20403;-77
2023/01/16 05:00:05;;;;;;;9.15;3.08;;;;;;;3.96;100.00;98379.47;6155624;23;20021;-77
2023/01/16 05:02:34;;;;;;;5.68;2.78;;;;;;;3.92;100.00;98367.03;6157008;23;20041;-78
2023/01/16 05:05:00;;;;;;;7.45;2.83;;;;;;;3.95;100.00;98364.13;6157544;23;20045;-78
2023/01/16 05:07:27;;;;;;;5.22;2.65;;;;;;;3.94;100.00;98354.75;6156815;23;20036;-79
2023/01/16 05:09:55;;;;;;;4.72;2.72;;;;;;;4.05;100.00;98351.78;6156462;23;20052;-79
2023/01/16 05:12:22;;;;;;;5.03;2.88;;;;;;;4.06;100.00;98330.09;6156369;23;20025;-78
2023/01/16 05:14:49;;;;;;;5.80;2.35;;;;;;;4.15;100.00;98328.28;6156535;23;20127;-78
2023/01/16 05:17:15;;;;;;;6.85;3.13;;;;;;;4.20;99.59;98324.19;6156336;23;20041;-78
2023/01/16 05:19:42;;;;;;;3.83;2.75;;;;;;;4.20;99.59;98318.22;6155240;23;20080;-78
2023/01/16 05:22:08;;;;;;;4.28;2.65;;;;;;;4.23;99.48;98308.31;6156323;23;20053;-78
2023/01/16 05:24:35;;;;;;;6.20;2.38;;;;;;;4.30;98.62;98305.81;6156191;23;20467;-77
2023/01/16 05:27:03;;;;;;;7.03;2.67;;;;;;;4.29;98.79;98292.09;6156410;23;20470;-79
2023/01/16 05:29:30;;;;;;;3.00;2.20;;;;;;;4.26;98.13;98283.84;6157834;23;20101;-79
2023/01/16 05:31:56;;;;;;;3.95;2.20;;;;;;;4.30;98.65;98277.34;6159303;23;20509;-79
2023/01/16 05:34:23;;;;;;;3.22;2.20;;;;;;;4.28;98.58;98268.94;6159963;23;20057;-79
2023/01/16 05:36:49;;;;;;;4.25;2.10;;;;;;;4.33;97.99;98267.47;6159616;23;20037;-79
2023/01/16 05:39:18;;;;;;;5.40;2.63;;;;;;;4.33;97.89;98249.34;6159401;23;20071;-79
2023/01/16 05:41:45;;;;;;;7.18;3.70;;;;;;;4.36;97.60;98237.81;6158298;23;20053;-79
2023/01/16 05:44:13;;;;;;;6.90;2.50;;;;;;;4.37;97.58;98236.84;6157664;23;20025;-78
2023/01/16 05:46:39;;;;;;;6.60;2.47;;;;;;;4.33;97.59;98226.03;6158636;23;20045;-79
2023/01/16 05:49:06;;;;;;;4.13;2.28;;;;;;;4.39;97.78;98227.13;6159941;23;20056;-79
2023/01/16 05:51:33;;;;;;;5.00;2.20;;;;;;;4.36;97.46;98219.69;6160229;23;20502;-79
2023/01/16 05:53:59;;;;;;;6.20;2.50;;;;;;;4.41;96.62;98216.59;6158681;23;20045;-78
2023/01/16 05:56:26;;;;;;;5.22;1.90;;;;;;;4.42;97.82;98215.59;6158177;23;20156;-79
2023/01/16 05:58:53;;;;;;;3.67;2.25;;;;;;;4.42;97.43;98215.59;6158157;23;20073;-79
2023/01/16 06:01:21;;;;;;;5.20;1.98;;;;;;;4.39;97.12;98209.00;6158778;23;20025;-79
2023/01/16 06:03:48;;;;;;;2.47;1.73;;;;;;;4.41;97.36;98208.81;6159156;23;20064;-77
2023/01/16 06:06:15;;;;;;;5.30;1.98;;;;;;;4.46;96.97;98209.09;6157774;23;20018;-78
2023/01/16 06:08:41;;;;;;;3.63;1.42;;;;;;;4.48;97.51;98207.94;6157687;23;20025;-78
2023/01/16 06:11:08;;;;;;;3.25;2.10;;;;;;;4.46;97.61;98189.19;6158125;23;20494;-79
2023/01/16 06:13:34;;;;;;;4.38;2.33;;;;;;;4.50;97.41;98194.81;6160538;23;20026;-79
2023/01/16 06:16:01;;;;;;;3.15;1.65;;;;;;;4.53;96.60;98182.31;6158183;23;20096;-79
2023/01/16 06:18:29;;;;;;;5.63;2.28;;;;;;;4.54;97.02;98183.13;6158527;23;20093;-78
2023/01/16 06:20:56;;;;;;;3.22;1.77;;;;;;;4.53;96.64;98163.41;6159872;23;20032;-78
2023/01/16 06:23:24;;;;;;;4.35;1.65;;;;;;;4.56;96.82;98152.69;6159192;23;20064;-80
2023/01/16 06:25:52;;;;;;;6.22;1.75;;;;;;;4.53;96.37;98122.75;6160011;23;20056;-79
2023/01/16 06:28:19;;;;;;;2.97;1.27;;;;;;;4.55;96.57;98104.47;6159459;23;20032;-78
2023/01/16 06:30:45;;;;;;;6.28;2.00;;;;;;;4.55;96.26;98104.47;6159973;23;20349;-79
2023/01/16 06:33:12;;;;;;;2.95;1.67;;;;;;;4.52;96.29;98104.81;6160535;23;20045;-79
2023/01/16 06:35:40;;;;;;;2.65;1.70;;;;;;;4.60;96.52;98113.31;6162128;23;20021;-78
2023/01/16 06:38:07;;;;;;;3.97;1.75;;;;;;;4.66;95.91;98104.00;6160013;23;20336;-79
2023/01/16 06:40:35;;;;;;;4.03;2.08;;;;;;;4.65;95.99;98105.00;6160454;23;20518;-79
2023/01/16 06:43:02;;;;;;;4.25;2.15;;;;;;;4.61;96.26;98089.00;6162196;23;20033;-78
2023/01/16 06:45:28;;;;;;;3.05;2.08;;;;;;;4.64;95.53;98069.72;6161349;23;20029;-78
2023/01/16 06:47:56;;;;;;;3.95;2.10;;;;;;;4.61;95.69;98063.09;6158238;23;20083;-80
2023/01/16 06:50:24;;;;;;;7.63;2.25;;;;;;;4.63;95.79;98062.94;6158796;23;20026;-80
2023/01/16 06:52:52;;;;;;;4.93;2.22;;;;;;;4.69;95.66;98058.81;6159344;23;20022;-79
2023/01/16 06:55:19;;;;;;;4.53;2.33;;;;;;;4.71;95.70;98064.63;6158896;23;20033;-78
2023/01/16 06:57:47;;;;;;;7.50;2.70;;;;;;;4.71;95.30;98074.97;6160279;23;20018;-80
2023/01/16 07:00:16;;;;;;;4.07;2.25;;;;;;;4.69;95.22;98064.81;6161408;23;20446;-79
2023/01/16 07:02:43;;;;;;;7.30;2.67;;;;;;;4.66;95.71;98034.06;6163250;23;20024;-79
2023/01/16 07:05:11;;;;;;;5.10;2.50;;;;;;;4.68;95.15;98037.28;6163077;23;20035;-78
2023/01/16 07:07:38;;;;;;;5.13;2.45;;;;;;;4.65;95.76;98022.13;6162782;23;20025;-79
2023/01/16 07:10:06;;;;;;;5.22;2.50;;;;;;;4.66;95.66;98008.19;6168371;23;20033;-78
2023/01/16 07:12:33;;;;;;;3.65;2.50;;;;;;;4.64;95.56;97999.78;6172281;23;20033;-78
2023/01/16 07:23:17;;;;;;;8.80;3.50;;;;;;;4.65;96.09;97967.72;6163878;23;20083;-78
2023/01/16 07:25:46;;;;;;;4.20;2.87;;;;;;;4.64;95.35;97947.97;6160779;23;20075;-77
2023/01/16 07:28:13;;;;;;;6.25;3.20;;;;;;;4.61;95.28;97932.81;6157551;23;20056;-77
2023/01/16 07:30:39;;;;;;;4.57;3.25;;;;;;;4.63;95.17;97938.59;6155824;23;20096;-78
2023/01/16 07:33:06;;;;;;;5.80;3.25;;;;;;;4.70;95.26;97931.72;6157348;23;20026;-77
2023/01/16 07:35:33;;;;;;;6.95;3.63;;;;;;;4.79;95.51;97922.81;6154856;23;20053;-77
2023/01/16 07:37:59;;;;;;;6.90;3.40;;;;;;;4.78;94.91;97908.25;6154779;23;20053;-77
2023/01/16 07:40:26;;;;;;;7.03;3.45;;;;;;;4.87;95.04;97906.34;6154390;23;20057;-77
2023/01/16 07:42:54;;;;;;;4.80;3.40;;;;;;;4.85;95.05;97890.97;6154444;23;20056;-78
2023/01/16 07:45:20;;;;;;;4.70;3.60;;;;;;;4.79;95.15;97888.31;6154336;23;20096;-77
2023/01/16 07:47:47;;;;;;;7.50;4.13;;;;;;;4.80;95.53;97870.00;6155250;23;20105;-78
2023/01/16 07:50:14;;;;;;;13.35;3.80;;;;;;;4.76;96.15;97875.75;6153319;23;20061;-78
2023/01/16 07:52:43;;;;;;;8.82;3.72;;;;;;;4.65;97.18;97874.47;6150302;23;20057;-78
2023/01/16 07:55:09;;;;;;;4.82;3.22;;;;;;;4.71;97.33;97870.34;6153874;23;20097;-78
2023/01/16 07:57:39;;;;;;;5.38;3.03;;;;;;;4.69;96.80;97862.75;6156238;23;20026;-80
2023/01/16 08:00:28;;;;;;;5.60;3.38;;;;;;;4.67;96.57;97849.19;6157213;23;20029;-79
2023/01/16 08:03:22;;;;;;;5.32;3.13;;;;;;;4.63;97.41;97832.41;6156977;23;20029;-78
2023/01/16 08:05:59;;;;;;;6.05;2.70;;;;;;;4.50;96.77;97816.75;6159141;23;20045;-78
2023/01/16 08:09:00;;;;;;;7.45;2.42;;;;;;;4.57;96.66;97817.63;6160455;23;20080;-78
2023/01/16 08:11:38;;;;;;;9.10;2.78;;;;;;;4.58;96.24;97811.44;6156779;23;20018;-79
2023/01/16 08:14:22;;;;;;;4.95;2.20;;;;;;;4.65;96.97;97804.53;6155875;23;20029;-78
2023/01/16 08:16:50;;;;;;;8.27;2.25;;;;;;;4.61;96.23;97798.13;6098222;23;20089;-78
2023/01/16 08:19:26;;;;;;;7.93;2.55;;;;;;;4.52;96.51;97779.34;6126712;23;20116;-79
2023/01/16 08:21:53;;;;;;;10.27;2.75;;;;;;;4.68;96.26;97790.41;6128068;23;20046;-79
2023/01/16 08:24:20;;;;;;;6.65;1.95;;;;;;;4.68;95.84;97773.09;6127073;23;20308;-80
2023/01/16 08:26:46;;;;;;;5.88;2.65;;;;;;;4.62;95.62;97771.25;6123965;23;20100;-80
2023/01/16 08:56:48;;;;;;;5.55;2.20;;;;;;;4.53;95.36;97712.81;6125128;23;20020;-78
2023/01/16 08:59:14;;;;;;;3.05;1.77;;;;;;;4.58;95.91;97721.63;6124885;23;20022;-78
2023/01/16 09:01:44;;;;;;;4.20;1.92;;;;;;;4.53;96.22;97725.75;6125840;23;20350;-78
2023/01/16 09:06:38;;;;;;;5.00;1.90;;;;;;;4.54;96.78;97706.63;6134440;23;20022;-80
2023/01/16 09:09:06;;;;;;;2.95;2.28;;;;;;;4.52;96.46;97714.59;6134102;23;20081;-81
2023/01/16 09:14:18;;;;;;;1.65;1.25;;;;;;;4.57;96.00;97694.13;6133254;23;20419;-80
2023/01/16 09:16:46;;;;;;;5.25;2.08;;;;;;;4.56;96.41;97686.53;6133337;23;20314;-81
2023/01/16 09:19:12;;;;;;;2.72;2.20;;;;;;;4.59;96.62;97686.97;6134490;23;20071;-82
2023/01/16 09:21:39;;;;;;;1.45;1.25;;;;;;;4.59;96.04;97681.78;6133890;23;20033;-82
2023/01/16 09:24:07;;;;;;;3.05;1.40;;;;;;;4.61;96.25;97694.53;6133835;23;20498;-83
2023/01/16 09:26:33;;;;;;;6.57;2.22;;;;;;;4.58;96.34;97677.59;6135007;23;20057;-82
2023/01/16 09:29:00;;;;;;;4.35;2.30;;;;;;;4.63;96.15;97667.47;6134488;23;20026;-83
2023/01/16 09:31:28;;;;;;;3.42;1.65;;;;;;;4.56;96.32;97663.22;6134951;23;20391;-84
2023/01/16 09:33:55;;;;;;;2.90;1.75;;;;;;;4.57;95.89;97670.81;6135605;23;20045;-82
2023/01/16 09:36:21;;;;;;;4.35;1.58;;;;;;;4.57;95.72;97667.41;6136088;23;20478;-81
2023/01/16 09:38:48;;;;;;;3.92;1.38;;;;;;;4.55;95.74;97682.34;6134990;23;20067;-83
2023/01/16 09:43:35;;;;;;;4.88;1.40;;;;;;;4.53;95.90;97668.78;6134935;23;20033;-82
2023/01/16 09:44:08;;;;;;;1.52;1.02;;;;;;;4.53;95.53;97672.19;6134161;23;20033;-83
2023/01/16 09:46:39;;;;;;;1.33;1.10;;;;;;;4.53;96.06;97668.78;6132685;23;20018;-83
2023/01/16 09:49:18;;;;;;;3.25;1.45;;;;;;;4.52;95.50;97680.13;6133788;23;20347;-85
2023/01/16 09:58:35;;;;;;;1.95;1.35;;;;;;;4.54;95.73;97652.25;6131198;23;20097;-81
2023/01/16 10:00:16;;;;;;;5.13;1.42;;;;;;;4.53;95.30;97650.66;6131803;23;20037;-81
2023/01/16 10:02:45;;;;;;;4.18;1.77;;;;;;;4.56;94.98;97645.91;6132783;23;20053;-82
2023/01/16 10:05:15;;;;;;;3.00;1.55;;;;;;;4.56;95.12;97642.50;6134082;23;20538;-80
2023/01/16 10:07:50;;;;;;;4.28;1.52;;;;;;;4.60;95.72;97630.78;6133761;23;20018;-82
2023/01/16 10:10:36;;;;;;;2.63;1.55;;;;;;;4.61;95.04;97617.66;6133819;23;20033;-82
2023/01/16 10:13:27;;;;;;;2.35;1.65;;;;;;;4.65;94.90;97620.66;6133154;23;20037;-81
2023/01/16 10:16:01;;;;;;;3.80;1.73;;;;;;;4.65;94.00;97612.88;6133375;23;20022;-82
2023/01/16 10:18:38;;;;;;;1.30;0.88;;;;;;;4.64;94.47;97611.28;6133516;23;20026;-83
2023/01/16 10:21:33;;;;;;;2.33;1.50;;;;;;;4.67;94.62;97603.13;6133913;23;20045;-82
2023/01/16 10:24:11;;;;;;;1.83;1.20;;;;;;;4.72;94.12;97594.78;6123884;23;20046;-81
2023/01/16 10:26:54;;;;;;;1.35;1.10;;;;;;;4.79;93.88;97593.81;6134743;23;20026;-81
2023/01/16 10:29:26;;;;;;;1.05;0.88;;;;;;;4.75;93.96;97589.19;6135233;23;20033;-82
2023/01/16 10:31:59;;;;;;;1.58;1.08;;;;;;;4.77;93.96;97585.41;6137610;23;20050;-80
2023/01/16 10:34:32;;;;;;;4.10;1.42;;;;;;;4.72;94.03;97577.47;6136507;23;20014;-83
2023/01/16 10:37:01;;;;;;;3.13;1.38;;;;;;;4.74;93.13;97567.69;6133834;23;20049;-81
2023/01/16 10:39:32;;;;;;;4.53;1.42;;;;;;;4.74;93.26;97559.91;6131985;23;20029;-82
2023/01/16 10:50:40;;;;;;;1.38;1.27;;;;;;;4.88;92.60;97550.41;6132847;23;20076;-81
2023/01/16 10:53:10;;;;;;;2.47;1.15;;;;;;;4.90;92.06;97533.66;6133109;23;20049;-84
2023/01/16 10:55:40;;;;;;;0.80;0.80;;;;;;;5.03;92.38;97532.09;6131693;23;20117;-81
2023/01/16 10:58:17;;;;;;;1.52;0.73;;;;;;;5.06;92.68;97529.13;6132514;23;20241;-82
2023/01/16 11:00:44;;;;;;;1.10;1.00;;;;;;;5.04;91.85;97529.31;6132226;23;20057;-81
2023/01/16 11:03:15;;;;;;;1.63;0.82;;;;;;;5.08;91.89;97511.59;6131355;23;20434;-82
2023/01/16 11:05:44;;;;;;;0.98;0.88;;;;;;;4.99;92.09;97498.81;6132094;23;20101;-82
2023/01/16 11:08:17;;;;;;;4.57;1.48;;;;;;;4.99;91.92;97475.50;6133137;23;20017;-80
2023/01/16 11:10:46;;;;;;;;;;;;;;;5.04;91.97;97493.03;6133716;23;20026;-81
2023/01/16 11:19:19;;;;;;;1.80;1.10;;;;;;;5.22;92.99;97479.47;6134123;23;20044;-82
2023/01/16 11:21:53;;;;;;;2.00;1.27;;;;;;;5.37;92.13;97480.09;6131250;23;20053;-81
2023/01/16 11:24:24;;;;;;;1.48;1.05;;;;;;;5.41;91.98;97476.09;6133798;23;20088;-81
2023/01/16 11:26:54;;;;;;;1.95;0.82;;;;;;;5.58;91.59;97479.09;6132036;23;20026;-81
2023/01/16 11:29:24;;;;;;;2.95;1.35;;;;;;;5.78;91.14;97466.88;6131891;23;20026;-82
2023/01/16 11:31:59;;;;;;;1.42;1.20;;;;;;;5.70;90.65;97461.09;6132537;23;20026;-81
2023/01/16 11:34:37;;;;;;;4.43;1.55;;;;;;;5.87;90.07;97449.31;6131858;23;20022;-82
2023/01/16 11:37:08;;;;;;;1.55;1.45;;;;;;;5.83;90.42;97437.75;6131900;23;20101;-79
2023/01/16 11:39:36;;;;;;;2.80;1.90;;;;;;;5.71;90.26;97436.75;6130851;23;20022;-79
2023/01/16 11:46:01;;;;;;;3.67;1.67;;;;;;;5.54;90.48;97423.44;6130805;23;20022;-80
2023/01/16 11:47:51;;;;;;;2.40;2.05;;;;;;;5.34;91.87;97410.50;6082817;23;20057;-80
2023/01/16 11:50:29;;;;;;;2.38;1.80;;;;;;;5.37;92.29;97410.09;6133660;23;20057;-81
2023/01/16 11:52:57;;;;;;;4.35;2.05;;;;;;;5.55;92.13;97406.88;6132939;23;20026;-81
2023/01/16 11:55:34;;;;;;;3.47;2.33;;;;;;;5.32;91.78;97397.72;6134260;23;20053;-79
2023/01/16 11:58:05;;;;;;;3.22;2.22;;;;;;;5.28;92.16;97388.75;6136902;23;20056;-81
2023/01/16 12:00:46;;;;;;;2.63;2.08;;;;;;;5.22;92.23;97389.56;6135763;23;20033;-81
2023/01/16 12:03:35;;;;;;;3.08;2.25;;;;;;;5.22;92.31;97388.75;6136696;23;20036;-81
2023/01/16 12:06:10;;;;;;;4.47;2.60;;;;;;;5.22;92.57;97360.25;6135195;23;20049;-80
2023/01/16 12:09:04;;;;;;;4.45;2.30;;;;;;;5.23;92.92;97367.03;6136206;23;20026;-81
2023/01/16 12:11:50;;;;;;;2.70;1.77;;;;;;;5.26;92.85;97348.47;6135624;23;20024;-81
2023/01/16 12:14:26;;;;;;;2.00;1.67;;;;;;;5.32;92.51;97355.44;6136784;23;20100;-80
2023/01/16 12:17:05;;;;;;;2.03;1.65;;;;;;;5.32;92.39;97342.50;6135166;23;20064;-80
2023/01/16 12:20:00;;;;;;;1.95;1.75;;;;;;;5.32;92.49;97340.69;6132767;23;20025;-79
2023/01/16 12:22:41;;;;;;;4.32;1.50;;;;;;;5.33;92.47;97331.91;6127898;23;20045;-80
2023/01/16 12:25:26;;;;;;;1.75;1.63;;;;;;;5.33;92.47;97325.94;6132980;23;20050;-81
2023/01/16 12:28:06;;;;;;;1.60;1.48;;;;;;;5.28;92.72;97325.75;6132939;23;20057;-80
2023/01/16 12:30:50;;;;;;;3.22;1.60;;;;;;;5.29;92.74;97309.19;6132005;23;20172;-78
2023/01/16 12:33:26;;;;;;;3.13;1.98;;;;;;;5.26;92.82;97307.78;6133539;23;20080;-81
2023/01/16 12:36:00;;;;;;;5.22;2.40;;;;;;;5.32;93.00;97293.22;6133734;23;20471;-81
2023/01/16 12:38:29;;;;;;;1.85;1.73;;;;;;;5.24;93.34;97270.91;6132109;23;20022;-80
2023/01/16 12:44:23;;;;;;;1.92;1.60;;;;;;;5.23;93.24;97265.94;6132601;23;20109;-80
2023/01/16 12:47:01;;;;;;;5.20;2.00;;;;;;;5.06;93.82;97241.47;6126920;23;20049;-79
2023/01/16 12:49:44;;;;;;;2.45;1.95;;;;;;;5.07;93.83;97259.41;6131381;23;20398;-79
2023/01/16 12:52:31;;;;;;;5.53;1.88;;;;;;;5.04;94.19;97238.28;6131727;23;20032;-79
2023/01/16 12:55:08;;;;;;;4.43;2.08;;;;;;;5.00;94.57;97232.72;6132273;23;20096;-79
2023/01/16 12:57:52;;;;;;;2.72;2.33;;;;;;;5.07;95.15;97227.53;6132630;23;20037;-80
2023/01/16 13:00:23;;;;;;;2.97;2.20;;;;;;;5.11;95.12;97233.88;6133889;23;20082;-81
2023/01/16 13:02:57;;;;;;;4.22;2.58;;;;;;;5.20;95.01;97222.31;6139668;23;20033;-83
2023/01/16 13:05:27;;;;;;;5.03;2.63;;;;;;;5.17;95.14;97220.13;6149621;23;20033;-81
2023/01/16 13:08:01;;;;;;;4.53;2.70;;;;;;;5.14;95.22;97217.94;6151378;23;20021;-81
2023/01/16 13:13:25;;;;;;;6.95;2.60;;;;;;;5.12;95.64;97209.56;6151915;23;20074;-82
2023/01/16 13:16:00;;;;;;;5.88;2.60;;;;;;;5.13;95.43;97205.97;6150914;23;20472;-84